sensor_id;sensor_type;location;lat;lon;timestamp;pressure;altitude;pressure_sealevel;temperature;humidity
10079;BME280;5078;42.544;22.966;2023-04-12T00:02:23;93041.34;;;7.78;100.00
10079;BME280;5078;42.544;22.966;2023-04-12T00:04:51;93050.03;;;7.87;100.00
10079;BME280;5078;42.544;22.966;2023-04-12T00:07:21;93047.28;;;7.81;100.00
10079;BME280;5078;42.544;22.966;2023-04-12T00:09:48;93049.09;;;7.80;100.00
10079;BME280;5078;42.544;22.966;2023-04-12T00:12:16;93043.22;;;7.93;100.00
10079;BME280;5078;42.544;22.966;2023-04-12T00:14:43;93045.88;;;8.08;100.00
10079;BME280;5078;42.544;22.966;2023-04-12T00:17:10;93039.94;;;8.06;100.00
10079;BME280;5078;42.544;22.966;2023-04-12T00:19:37;93048.91;;;8.19;100.00
10079;BME280;5078;42.544;22.966;2023-04-12T00:22:06;93044.44;;;8.20;100.00
10079;BME280;5078;42.544;22.966;2023-04-12T00:24:34;93046.50;;;8.10;100.00
10079;BME280;5078;42.544;22.966;2023-04-12T00:27:01;93033.69;;;8.07;100.00
10079;BME280;5078;42.544;22.966;2023-04-12T00:29:28;93036.06;;;8.16;100.00
10079;BME280;5078;42.544;22.966;2023-04-12T00:31:54;93043.13;;;8.16;100.00
10079;BME280;5078;42.544;22.966;2023-04-12T00:34:21;93038.34;;;8.19;100.00
10079;BME280;5078;42.544;22.966;2023-04-12T00:36:48;93033.31;;;8.10;100.00
10079;BME280;5078;42.544;22.966;2023-04-12T00:39:15;93028.13;;;8.16;100.00
10079;BME280;5078;42.544;22.966;2023-04-12T00:41:43;93030.78;;;8.31;100.00
10079;BME280;5078;42.544;22.966;2023-04-12T00:44:10;93029.03;;;8.38;100.00
10079;BME280;5078;42.544;22.966;2023-04-12T00:46:36;93024.84;;;8.29;100.00
10079;BME280;5078;42.544;22.966;2023-04-12T00:49:04;93019.22;;;8.32;100.00
10079;BME280;5078;42.544;22.966;2023-04-12T00:51:31;93028.41;;;8.36;100.00
10079;BME280;5078;42.544;22.966;2023-04-12T00:53:59;93027.22;;;8.39;100.00
10079;BME280;5078;42.544;22.966;2023-04-12T00:56:27;93026.13;;;8.33;100.00
10079;BME280;5078;42.544;22.966;2023-04-12T00:58:55;93023.16;;;8.51;100.00
10079;BME280;5078;42.544;22.966;2023-04-12T01:01:22;93030.50;;;8.41;100.00
10079;BME280;5078;42.544;22.966;2023-04-12T01:03:51;93019.47;;;8.23;100.00
10079;BME280;5078;42.544;22.966;2023-04-12T01:06:30;93021.09;;;8.38;100.00
10079;BME280;5078;42.544;22.966;2023-04-12T01:09:03;93010.91;;;8.35;100.00
10079;BME280;5078;42.544;22.966;2023-04-12T01:11:37;93026.34;;;8.47;100.00
10079;BME280;5078;42.544;22.966;2023-04-12T01:14:14;93015.13;;;8.45;100.00
10079;BME280;5078;42.544;22.966;2023-04-12T01:16:46;93027.69;;;8.42;100.00
10079;BME280;5078;42.544;22.966;2023-04-12T01:19:31;93007.38;;;8.43;100.00
10079;BME280;5078;42.544;22.966;2023-04-12T01:22:10;93014.66;;;8.41;100.00
10079;BME280;5078;42.544;22.966;2023-04-12T01:24:45;93011.75;;;8.51;100.00
10079;BME280;5078;42.544;22.966;2023-04-12T01:27:34;93007.75;;;8.55;100.00
10079;BME280;5078;42.544;22.966;2023-04-12T01:30:05;93016.09;;;8.58;100.00
10079;BME280;5078;42.544;22.966;2023-04-12T01:32:34;93019.00;;;8.63;100.00
10079;BME280;5078;42.544;22.966;2023-04-12T01:35:02;93014.31;;;8.59;99.65
10079;BME280;5078;42.544;22.966;2023-04-12T01:37:30;93008.84;;;8.46;100.00
10079;BME280;5078;42.544;22.966;2023-04-12T01:39:57;93004.19;;;8.18;100.00
10079;BME280;5078;42.544;22.966;2023-04-12T01:42:24;93004.38;;;8.02;100.00
10079;BME280;5078;42.544;22.966;2023-04-12T01:44:52;93005.00;;;7.89;100.00
10079;BME280;5078;42.544;22.966;2023-04-12T01:47:19;93005.81;;;7.89;100.00
10079;BME280;5078;42.544;22.966;2023-04-12T01:49:51;93019.47;;;7.93;100.00
10079;BME280;5078;42.544;22.966;2023-04-12T01:52:22;93012.47;;;8.00;100.00
10079;BME280;5078;42.544;22.966;2023-04-12T01:54:56;93001.63;;;8.10;100.00
10079;BME280;5078;42.544;22.966;2023-04-12T01:57:24;93009.81;;;8.00;100.00
10079;BME280;5078;42.544;22.966;2023-04-12T01:59:54;93010.00;;;7.98;100.00
10079;BME280;5078;42.544;22.966;2023-04-12T02:02:22;93003.91;;;7.98;100.00
10079;BME280;5078;42.544;22.966;2023-04-12T02:04:50;93010.34;;;7.95;100.00
10079;BME280;5078;42.544;22.966;2023-04-12T02:07:17;93009.38;;;7.82;100.00
10079;BME280;5078;42.544;22.966;2023-04-12T02:09:47;93011.00;;;7.97;100.00
10079;BME280;5078;42.544;22.966;2023-04-12T02:12:14;93006.81;;;8.03;100.00
10079;BME280;5078;42.544;22.966;2023-04-12T02:14:41;93017.00;;;8.06;100.00
10079;BME280;5078;42.544;22.966;2023-04-12T02:17:09;93009.38;;;7.82;100.00
10079;BME280;5078;42.544;22.966;2023-04-12T02:19:37;92999.63;;;7.82;100.00
10079;BME280;5078;42.544;22.966;2023-04-12T02:22:04;92981.50;;;7.79;100.00
10079;BME280;5078;42.544;22.966;2023-04-12T02:24:32;92999.34;;;7.77;100.00
10079;BME280;5078;42.544;22.966;2023-04-12T02:26:59;93000.72;;;7.88;100.00
10079;BME280;5078;42.544;22.966;2023-04-12T02:29:26;93004.09;;;7.96;100.00
10079;BME280;5078;42.544;22.966;2023-04-12T02:31:53;93001.53;;;8.03;100.00
10079;BME280;5078;42.544;22.966;2023-04-12T02:34:21;92999.72;;;8.18;100.00
10079;BME280;5078;42.544;22.966;2023-04-12T02:36:48;93001.38;;;8.19;100.00
10079;BME280;5078;42.544;22.966;2023-04-12T02:39:15;92997.81;;;8.27;100.00
10079;BME280;5078;42.544;22.966;2023-04-12T02:41:43;92994.06;;;8.36;100.00
10079;BME280;5078;42.544;22.966;2023-04-12T02:44:10;92995.59;;;8.31;100.00
10079;BME280;5078;42.544;22.966;2023-04-12T02:46:37;92990.16;;;8.17;100.00
10079;BME280;5078;42.544;22.966;2023-04-12T02:49:04;92984.31;;;8.37;100.00
10079;BME280;5078;42.544;22.966;2023-04-12T02:51:32;92992.44;;;8.50;100.00
10079;BME280;5078;42.544;22.966;2023-04-12T02:53:59;92982.59;;;8.59;100.00
10079;BME280;5078;42.544;22.966;2023-04-12T02:56:26;92982.88;;;8.64;100.00
10079;BME280;5078;42.544;22.966;2023-04-12T02:58:54;92981.94;;;8.72;100.00
10079;BME280;5078;42.544;22.966;2023-04-12T03:01:21;92984.75;;;8.70;100.00
10079;BME280;5078;42.544;22.966;2023-04-12T03:03:48;92968.63;;;8.65;100.00
10079;BME280;5078;42.544;22.966;2023-04-12T03:06:15;92973.41;;;8.91;100.00
10079;BME280;5078;42.544;22.966;2023-04-12T03:08:43;92970.56;;;8.93;100.00
10079;BME280;5078;42.544;22.966;2023-04-12T03:11:10;92966.06;;;8.93;100.00
10079;BME280;5078;42.544;22.966;2023-04-12T03:13:36;92971.50;;;8.85;100.00
10079;BME280;5078;42.544;22.966;2023-04-12T03:16:19;92970.16;;;8.74;100.00
10079;BME280;5078;42.544;22.966;2023-04-12T03:18:47;92965.88;;;8.73;100.00
10079;BME280;5078;42.544;22.966;2023-04-12T03:21:14;92969.78;;;8.77;100.00
10079;BME280;5078;42.544;22.966;2023-04-12T03:23:43;92979.19;;;8.65;100.00
10079;BME280;5078;42.544;22.966;2023-04-12T03:26:09;92969.59;;;8.42;100.00
10079;BME280;5078;42.544;22.966;2023-04-12T03:28:36;92978.78;;;8.47;100.00
10079;BME280;5078;42.544;22.966;2023-04-12T03:31:03;92987.25;;;8.42;100.00
10079;BME280;5078;42.544;22.966;2023-04-12T03:33:30;92983.66;;;8.64;100.00
10079;BME280;5078;42.544;22.966;2023-04-12T03:35:56;92987.84;;;8.74;100.00
10079;BME280;5078;42.544;22.966;2023-04-12T03:38:23;92994.38;;;8.78;100.00
10079;BME280;5078;42.544;22.966;2023-04-12T03:40:51;92989.22;;;8.70;100.00
10079;BME280;5078;42.544;22.966;2023-04-12T03:43:18;92989.91;;;8.78;100.00
10079;BME280;5078;42.544;22.966;2023-04-12T03:45:45;92995.91;;;8.51;100.00
10079;BME280;5078;42.544;22.966;2023-04-12T03:48:12;92996.38;;;8.39;100.00
10079;BME280;5078;42.544;22.966;2023-04-12T03:50:40;92998.63;;;8.28;100.00
10079;BME280;5078;42.544;22.966;2023-04-12T03:53:08;93001.09;;;8.29;100.00
10079;BME280;5078;42.544;22.966;2023-04-12T03:55:35;93004.31;;;8.39;100.00
10079;BME280;5078;42.544;22.966;2023-04-12T03:58:04;92988.81;;;8.21;100.00
10079;BME280;5078;42.544;22.966;2023-04-12T04:00:30;92996.25;;;8.18;100.00
10079;BME280;5078;42.544;22.966;2023-04-12T04:02:58;92998.63;;;8.13;100.00
10079;BME280;5078;42.544;22.966;2023-04-12T04:05:27;92996.91;;;8.05;100.00
10079;BME280;5078;42.544;22.966;2023-04-12T04:07:54;93001.91;;;8.00;100.00
10079;BME280;5078;42.544;22.966;2023-04-12T04:10:20;92986.25;;;7.98;100.00
10079;BME280;5078;42.544;22.966;2023-04-12T04:12:47;93010.91;;;8.06;100.00
10079;BME280;5078;42.544;22.966;2023-04-12T04:15:15;93012.63;;;8.13;100.00
10079;BME280;5078;42.544;22.966;2023-04-12T04:17:42;93017.28;;;8.26;100.00
10079;BME280;5078;42.544;22.966;2023-04-12T04:20:10;93030.41;;;8.34;100.00
10079;BME280;5078;42.544;22.966;2023-04-12T04:22:37;93035.69;;;8.34;99.07
10079;BME280;5078;42.544;22.966;2023-04-12T04:25:05;93029.03;;;8.24;97.27
10079;BME280;5078;42.544;22.966;2023-04-12T04:27:32;93044.69;;;8.25;97.76
10079;BME280;5078;42.544;22.966;2023-04-12T04:30:03;93044.59;;;8.18;97.18
10079;BME280;5078;42.544;22.966;2023-04-12T04:32:32;93041.03;;;8.26;97.63
10079;BME280;5078;42.544;22.966;2023-04-12T04:34:59;93041.69;;;8.28;95.23
10079;BME280;5078;42.544;22.966;2023-04-12T04:37:27;93042.31;;;8.15;93.89
10079;BME280;5078;42.544;22.966;2023-04-12T04:39:54;93038.06;;;8.29;96.05
10079;BME280;5078;42.544;22.966;2023-04-12T04:42:21;93037.16;;;8.22;94.38
10079;BME280;5078;42.544;22.966;2023-04-12T04:44:48;93041.63;;;8.21;94.83
10079;BME280;5078;42.544;22.966;2023-04-12T04:47:15;93050.38;;;8.52;92.16
10079;BME280;5078;42.544;22.966;2023-04-12T04:49:44;93051.47;;;8.42;91.78
10079;BME280;5078;42.544;22.966;2023-04-12T04:52:13;93060.47;;;8.48;91.26
10079;BME280;5078;42.544;22.966;2023-04-12T04:54:40;93058.03;;;8.47;89.71
10079;BME280;5078;42.544;22.966;2023-04-12T04:57:06;93064.03;;;8.40;89.80
10079;BME280;5078;42.544;22.966;2023-04-12T04:59:35;93072.31;;;8.52;89.12
10079;BME280;5078;42.544;22.966;2023-04-12T05:02:02;93062.47;;;8.31;91.65
10079;BME280;5078;42.544;22.966;2023-04-12T05:04:29;93072.59;;;8.57;91.49
10079;BME280;5078;42.544;22.966;2023-04-12T05:06:57;93078.06;;;8.56;90.32
10079;BME280;5078;42.544;22.966;2023-04-12T05:09:24;93081.81;;;8.47;88.99
10079;BME280;5078;42.544;22.966;2023-04-12T05:11:50;93088.00;;;8.69;88.15
10079;BME280;5078;42.544;22.966;2023-04-12T05:14:17;93078.06;;;8.56;84.48
10079;BME280;5078;42.544;22.966;2023-04-12T05:16:44;93080.63;;;8.79;83.08
10079;BME280;5078;42.544;22.966;2023-04-12T05:19:11;93076.53;;;8.61;79.71
10079;BME280;5078;42.544;22.966;2023-04-12T05:21:37;93078.91;;;8.56;78.19
10079;BME280;5078;42.544;22.966;2023-04-12T05:24:06;93082.16;;;8.43;80.16
10079;BME280;5078;42.544;22.966;2023-04-12T05:26:33;93082.34;;;8.42;79.17
10079;BME280;5078;42.544;22.966;2023-04-12T05:29:00;93087.81;;;8.40;79.17
10079;BME280;5078;42.544;22.966;2023-04-12T05:31:26;93089.50;;;8.33;80.93
10079;BME280;5078;42.544;22.966;2023-04-12T05:33:53;93088.72;;;8.48;81.49
10079;BME280;5078;42.544;22.966;2023-04-12T05:36:20;93083.06;;;8.51;80.67
10079;BME280;5078;42.544;22.966;2023-04-12T05:38:46;93080.78;;;8.48;81.80
10079;BME280;5078;42.544;22.966;2023-04-12T05:41:14;93081.06;;;8.53;81.68
10079;BME280;5078;42.544;22.966;2023-04-12T05:43:42;93077.63;;;8.52;80.96
10079;BME280;5078;42.544;22.966;2023-04-12T05:46:08;93081.88;;;8.53;82.30
10079;BME280;5078;42.544;22.966;2023-04-12T05:48:35;93080.34;;;8.59;81.04
10079;BME280;5078;42.544;22.966;2023-04-12T05:51:03;93077.50;;;8.60;80.34
10079;BME280;5078;42.544;22.966;2023-04-12T05:53:30;93076.88;;;8.43;80.88
10079;BME280;5078;42.544;22.966;2023-04-12T05:55:57;93069.41;;;8.47;80.71
10079;BME280;5078;42.544;22.966;2023-04-12T05:58:25;93064.94;;;8.62;80.94
10079;BME280;5078;42.544;22.966;2023-04-12T06:00:52;93058.94;;;8.54;81.81
10079;BME280;5078;42.544;22.966;2023-04-12T06:03:20;93060.03;;;8.59;80.76
10079;BME280;5078;42.544;22.966;2023-04-12T06:05:47;93068.41;;;8.63;81.03
10079;BME280;5078;42.544;22.966;2023-04-12T06:08:15;93081.59;;;8.63;82.24
10079;BME280;5078;42.544;22.966;2023-04-12T06:10:42;93088.34;;;8.51;81.36
10079;BME280;5078;42.544;22.966;2023-04-12T06:13:09;93095.47;;;8.65;81.53
10079;BME280;5078;42.544;22.966;2023-04-12T06:15:37;93101.38;;;8.67;80.87
10079;BME280;5078;42.544;22.966;2023-04-12T06:18:05;93097.56;;;8.70;79.06
10079;BME280;5078;42.544;22.966;2023-04-12T06:20:32;93097.66;;;8.61;76.95
10079;BME280;5078;42.544;22.966;2023-04-12T06:22:59;93104.13;;;8.59;77.70
10079;BME280;5078;42.544;22.966;2023-04-12T06:25:25;93106.84;;;8.66;78.27
10079;BME280;5078;42.544;22.966;2023-04-12T06:27:52;93101.22;;;8.69;78.28
10079;BME280;5078;42.544;22.966;2023-04-12T06:30:19;93088.63;;;8.56;78.48
10079;BME280;5078;42.544;22.966;2023-04-12T06:32:50;93108.31;;;8.53;80.17
10079;BME280;5078;42.544;22.966;2023-04-12T06:35:16;93107.50;;;8.53;81.43
10079;BME280;5078;42.544;22.966;2023-04-12T06:37:44;93106.50;;;8.54;81.16
10079;BME280;5078;42.544;22.966;2023-04-12T06:40:11;93099.56;;;8.53;80.60
10079;BME280;5078;42.544;22.966;2023-04-12T06:42:38;93099.38;;;8.54;81.16
10079;BME280;5078;42.544;22.966;2023-04-12T06:45:05;93110.03;;;8.46;80.53
10079;BME280;5078;42.544;22.966;2023-04-12T06:47:32;93106.78;;;8.44;81.16
10079;BME280;5078;42.544;22.966;2023-04-12T06:50:00;93113.84;;;8.43;82.38
10079;BME280;5078;42.544;22.966;2023-04-12T06:52:27;93101.28;;;8.46;81.96
10079;BME280;5078;42.544;22.966;2023-04-12T06:54:54;93103.50;;;8.57;80.45
10079;BME280;5078;42.544;22.966;2023-04-12T06:57:21;93103.66;;;8.40;79.81
10079;BME280;5078;42.544;22.966;2023-04-12T06:59:48;93098.53;;;8.24;81.07
10079;BME280;5078;42.544;22.966;2023-04-12T07:02:15;93095.88;;;8.09;82.88
10079;BME280;5078;42.544;22.966;2023-04-12T07:04:41;93087.56;;;8.12;84.15
10079;BME280;5078;42.544;22.966;2023-04-12T07:07:09;93094.88;;;8.25;84.38
10079;BME280;5078;42.544;22.966;2023-04-12T07:09:36;93098.41;;;8.17;84.29
10079;BME280;5078;42.544;22.966;2023-04-12T07:12:03;93091.31;;;8.33;84.27
10079;BME280;5078;42.544;22.966;2023-04-12T07:14:29;93091.72;;;8.45;83.46
10079;BME280;5078;42.544;22.966;2023-04-12T07:16:56;93090.72;;;8.46;83.29
10079;BME280;5078;42.544;22.966;2023-04-12T07:19:23;93097.47;;;8.63;82.86
10079;BME280;5078;42.544;22.966;2023-04-12T07:21:50;93095.72;;;8.85;82.10
10079;BME280;5078;42.544;22.966;2023-04-12T07:24:18;93099.09;;;8.94;81.53
10079;BME280;5078;42.544;22.966;2023-04-12T07:26:45;93098.75;;;8.82;80.62
10079;BME280;5078;42.544;22.966;2023-04-12T07:29:12;93088.66;;;9.07;78.36
10079;BME280;5078;42.544;22.966;2023-04-12T07:31:38;93083.75;;;9.04;76.92
10079;BME280;5078;42.544;22.966;2023-04-12T07:34:05;93092.69;;;9.03;76.34
10079;BME280;5078;42.544;22.966;2023-04-12T07:36:32;93077.59;;;9.18;75.21
10079;BME280;5078;42.544;22.966;2023-04-12T07:38:58;93091.50;;;9.05;73.69
10079;BME280;5078;42.544;22.966;2023-04-12T07:41:27;93081.84;;;8.98;73.20
10079;BME280;5078;42.544;22.966;2023-04-12T07:43:53;93085.38;;;9.05;73.10
10079;BME280;5078;42.544;22.966;2023-04-12T07:46:20;93089.19;;;9.17;71.40
10079;BME280;5078;42.544;22.966;2023-04-12T07:48:47;93089.66;;;9.06;72.40
10079;BME280;5078;42.544;22.966;2023-04-12T07:51:14;93085.19;;;9.21;71.80
10079;BME280;5078;42.544;22.966;2023-04-12T07:53:41;93088.59;;;9.37;70.22
10079;BME280;5078;42.544;22.966;2023-04-12T07:56:12;93075.00;;;9.40;68.32
10079;BME280;5078;42.544;22.966;2023-04-12T07:58:41;93082.03;;;9.33;67.25
10079;BME280;5078;42.544;22.966;2023-04-12T08:01:07;93079.94;;;9.28;68.58
10079;BME280;5078;42.544;22.966;2023-04-12T08:03:34;93083.06;;;9.32;69.11
10079;BME280;5078;42.544;22.966;2023-04-12T08:06:01;93077.75;;;9.75;67.50
10079;BME280;5078;42.544;22.966;2023-04-12T08:08:28;93077.28;;;9.64;66.34
10079;BME280;5078;42.544;22.966;2023-04-12T08:10:54;93070.16;;;9.93;66.46
10079;BME280;5078;42.544;22.966;2023-04-12T08:13:21;93070.16;;;10.14;65.06
10079;BME280;5078;42.544;22.966;2023-04-12T08:15:49;93062.97;;;10.08;64.43
10079;BME280;5078;42.544;22.966;2023-04-12T08:18:16;93057.25;;;10.33;61.96
10079;BME280;5078;42.544;22.966;2023-04-12T08:20:43;93055.44;;;10.33;61.07
10079;BME280;5078;42.544;22.966;2023-04-12T08:23:11;93039.56;;;10.40;59.10
10079;BME280;5078;42.544;22.966;2023-04-12T08:25:38;93041.81;;;10.36;59.08
10079;BME280;5078;42.544;22.966;2023-04-12T08:28:05;93025.22;;;10.63;57.70
10079;BME280;5078;42.544;22.966;2023-04-12T08:30:32;93023.69;;;10.82;56.17
10079;BME280;5078;42.544;22.966;2023-04-12T08:33:01;93014.44;;;11.45;52.49
10079;BME280;5078;42.544;22.966;2023-04-12T08:35:28;93008.19;;;12.06;50.84
10079;BME280;5078;42.544;22.966;2023-04-12T08:37:54;93000.66;;;12.82;48.83
10079;BME280;5078;42.544;22.966;2023-04-12T08:40:21;92994.47;;;13.40;47.03
10079;BME280;5078;42.544;22.966;2023-04-12T08:42:49;93008.75;;;13.00;46.79
10079;BME280;5078;42.544;22.966;2023-04-12T08:45:18;92997.72;;;12.97;46.09
10079;BME280;5078;42.544;22.966;2023-04-12T08:47:45;93019.66;;;12.85;47.23
10079;BME280;5078;42.544;22.966;2023-04-12T08:50:13;93012.81;;;13.54;46.62
10079;BME280;5078;42.544;22.966;2023-04-12T08:52:41;93003.44;;;14.02;43.42
10079;BME280;5078;42.544;22.966;2023-04-12T08:55:09;92998.91;;;14.02;42.96
10079;BME280;5078;42.544;22.966;2023-04-12T08:57:40;93011.06;;;13.98;42.79
10079;BME280;5078;42.544;22.966;2023-04-12T09:00:08;93009.50;;;13.59;42.53
10079;BME280;5078;42.544;22.966;2023-04-12T09:02:36;93026.44;;;13.96;42.50
10079;BME280;5078;42.544;22.966;2023-04-12T09:05:03;93010.41;;;13.78;42.02
10079;BME280;5078;42.544;22.966;2023-04-12T09:07:32;93028.59;;;13.04;43.04
10079;BME280;5078;42.544;22.966;2023-04-12T09:09:59;93022.03;;;13.07;44.10
10079;BME280;5078;42.544;22.966;2023-04-12T09:12:26;93023.97;;;13.38;43.26
10079;BME280;5078;42.544;22.966;2023-04-12T09:15:07;93018.81;;;13.43;43.53
10079;BME280;5078;42.544;22.966;2023-04-12T09:17:35;93024.19;;;13.30;43.08
10079;BME280;5078;42.544;22.966;2023-04-12T09:20:25;93014.22;;;13.12;43.85
10079;BME280;5078;42.544;22.966;2023-04-12T09:22:53;93028.66;;;13.99;43.20
10079;BME280;5078;42.544;22.966;2023-04-12T09:25:44;93026.22;;;12.83;39.84
10079;BME280;5078;42.544;22.966;2023-04-12T09:28:23;93001.81;;;12.34;41.20
10079;BME280;5078;42.544;22.966;2023-04-12T09:30:51;93021.88;;;12.10;40.48
10079;BME280;5078;42.544;22.966;2023-04-12T09:33:19;93009.69;;;12.67;41.04
10079;BME280;5078;42.544;22.966;2023-04-12T09:35:46;93016.72;;;13.00;40.66
10079;BME280;5078;42.544;22.966;2023-04-12T09:38:15;93009.03;;;13.69;40.29
10079;BME280;5078;42.544;22.966;2023-04-12T09:40:41;93007.22;;;13.88;39.88
10079;BME280;5078;42.544;22.966;2023-04-12T09:43:08;93015.00;;;13.26;40.91
10079;BME280;5078;42.544;22.966;2023-04-12T09:45:36;93019.41;;;13.45;40.43
10079;BME280;5078;42.544;22.966;2023-04-12T09:48:04;93010.44;;;13.40;40.27
10079;BME280;5078;42.544;22.966;2023-04-12T09:50:32;92995.44;;;13.00;40.52
10079;BME280;5078;42.544;22.966;2023-04-12T09:53:00;92997.03;;;13.14;40.04
10079;BME280;5078;42.544;22.966;2023-04-12T09:55:30;93003.53;;;13.64;38.63
10079;BME280;5078;42.544;22.966;2023-04-12T09:58:01;92990.81;;;14.16;37.52
10079;BME280;5078;42.544;22.966;2023-04-12T10:00:30;92984.94;;;14.07;37.18
10079;BME280;5078;42.544;22.966;2023-04-12T10:02:58;93001.66;;;13.96;36.35
10079;BME280;5078;42.544;22.966;2023-04-12T10:05:25;92990.44;;;13.87;36.50
10079;BME280;5078;42.544;22.966;2023-04-12T10:07:54;92977.50;;;13.34;38.13
10079;BME280;5078;42.544;22.966;2023-04-12T10:10:21;92982.81;;;13.34;37.50
10079;BME280;5078;42.544;22.966;2023-04-12T10:12:49;92964.19;;;13.91;35.80
10079;BME280;5078;42.544;22.966;2023-04-12T10:15:16;92954.66;;;13.51;35.73
10079;BME280;5078;42.544;22.966;2023-04-12T10:17:47;92959.66;;;13.66;34.83
10079;BME280;5078;42.544;22.966;2023-04-12T10:20:15;92950.63;;;13.92;35.78
10079;BME280;5078;42.544;22.966;2023-04-12T10:22:44;92943.28;;;14.31;36.35
10079;BME280;5078;42.544;22.966;2023-04-12T10:25:12;92930.78;;;14.87;35.61
10079;BME280;5078;42.544;22.966;2023-04-12T10:27:40;92917.88;;;14.84;34.16
10079;BME280;5078;42.544;22.966;2023-04-12T10:30:25;92916.63;;;14.86;32.16
10079;BME280;5078;42.544;22.966;2023-04-12T10:33:13;92905.53;;;15.01;32.50
10079;BME280;5078;42.544;22.966;2023-04-12T10:35:57;92909.38;;;15.36;31.09
10079;BME280;5078;42.544;22.966;2023-04-12T10:38:27;92909.00;;;15.20;31.21
10079;BME280;5078;42.544;22.966;2023-04-12T10:41:11;92909.63;;;15.46;29.97
10079;BME280;5078;42.544;22.966;2023-04-12T10:43:39;92904.47;;;15.21;31.28
10079;BME280;5078;42.544;22.966;2023-04-12T10:46:07;92916.34;;;14.76;31.47
10079;BME280;5078;42.544;22.966;2023-04-12T10:48:35;92878.34;;;14.44;31.38
10079;BME280;5078;42.544;22.966;2023-04-12T10:51:16;92915.81;;;14.67;30.72
10079;BME280;5078;42.544;22.966;2023-04-12T10:53:47;92918.00;;;13.97;31.68
10079;BME280;5078;42.544;22.966;2023-04-12T10:56:36;92910.53;;;13.30;31.83
10079;BME280;5078;42.544;22.966;2023-04-12T10:59:04;92907.97;;;13.49;32.12
10079;BME280;5078;42.544;22.966;2023-04-12T11:01:33;92893.19;;;13.96;32.44
10079;BME280;5078;42.544;22.966;2023-04-12T11:04:14;92917.69;;;14.05;30.45
10079;BME280;5078;42.544;22.966;2023-04-12T11:06:49;92911.84;;;13.78;28.88
10079;BME280;5078;42.544;22.966;2023-04-12T11:09:18;92897.13;;;13.12;29.93
10079;BME280;5078;42.544;22.966;2023-04-12T11:11:45;92915.16;;;13.10;29.43
10079;BME280;5078;42.544;22.966;2023-04-12T11:14:12;92903.44;;;13.49;29.22
10079;BME280;5078;42.544;22.966;2023-04-12T11:19:47;92913.00;;;14.26;30.45
10079;BME280;5078;42.544;22.966;2023-04-12T11:22:16;92901.84;;;14.35;30.61
10079;BME280;5078;42.544;22.966;2023-04-12T11:24:44;92914.56;;;14.33;29.78
10079;BME280;5078;42.544;22.966;2023-04-12T11:27:11;92895.97;;;14.63;30.36
10079;BME280;5078;42.544;22.966;2023-04-12T11:29:38;92911.00;;;14.39;30.08
10079;BME280;5078;42.544;22.966;2023-04-12T11:32:06;92917.00;;;14.35;28.85
10079;BME280;5078;42.544;22.966;2023-04-12T11:34:35;92907.03;;;13.62;28.99
10079;BME280;5078;42.544;22.966;2023-04-12T11:37:05;92887.25;;;13.19;29.69
10079;BME280;5078;42.544;22.966;2023-04-12T11:39:34;92907.09;;;13.55;30.30
10079;BME280;5078;42.544;22.966;2023-04-12T11:42:01;92898.13;;;14.18;30.71
10079;BME280;5078;42.544;22.966;2023-04-12T11:44:30;92899.59;;;14.32;29.57
10079;BME280;5078;42.544;22.966;2023-04-12T11:46:58;92898.47;;;14.03;28.58
10079;BME280;5078;42.544;22.966;2023-04-12T11:49:25;92898.03;;;14.06;28.96
10079;BME280;5078;42.544;22.966;2023-04-12T11:52:00;92893.28;;;14.27;28.65
10079;BME280;5078;42.544;22.966;2023-04-12T11:54:29;92903.09;;;13.89;29.08
10079;BME280;5078;42.544;22.966;2023-04-12T11:56:56;92896.53;;;13.92;29.94
10079;BME280;5078;42.544;22.966;2023-04-12T11:59:30;92900.34;;;13.77;30.63
10079;BME280;5078;42.544;22.966;2023-04-12T12:01:58;92886.69;;;13.67;31.02
10079;BME280;5078;42.544;22.966;2023-04-12T12:04:27;92900.28;;;13.84;30.61
10079;BME280;5078;42.544;22.966;2023-04-12T12:06:54;92893.38;;;13.76;30.63
10079;BME280;5078;42.544;22.966;2023-04-12T12:09:22;92900.59;;;13.94;30.34
10079;BME280;5078;42.544;22.966;2023-04-12T12:11:51;92898.78;;;13.70;30.65
10079;BME280;5078;42.544;22.966;2023-04-12T12:14:18;92894.81;;;13.79;30.99
10079;BME280;5078;42.544;22.966;2023-04-12T12:16:51;92872.53;;;13.48;30.84
10079;BME280;5078;42.544;22.966;2023-04-12T12:19:29;92885.84;;;13.48;30.96
10079;BME280;5078;42.544;22.966;2023-04-12T12:22:13;92887.81;;;14.03;31.86
10079;BME280;5078;42.544;22.966;2023-04-12T12:24:44;92887.13;;;14.08;32.12
10079;BME280;5078;42.544;22.966;2023-04-12T12:27:17;92891.16;;;14.17;31.37
10079;BME280;5078;42.544;22.966;2023-04-12T12:29:48;92883.78;;;14.56;31.86
10079;BME280;5078;42.544;22.966;2023-04-12T12:32:16;92901.97;;;14.59;30.42
10079;BME280;5078;42.544;22.966;2023-04-12T12:34:50;92888.16;;;14.25;30.48
10079;BME280;5078;42.544;22.966;2023-04-12T12:37:20;92886.91;;;14.09;30.06
10079;BME280;5078;42.544;22.966;2023-04-12T12:40:04;92893.34;;;13.83;30.05
10079;BME280;5078;42.544;22.966;2023-04-12T12:42:46;92881.13;;;13.75;30.20
10079;BME280;5078;42.544;22.966;2023-04-12T12:45:15;92884.00;;;13.49;30.89
10079;BME280;5078;42.544;22.966;2023-04-12T12:47:46;92880.91;;;13.52;31.02
10079;BME280;5078;42.544;22.966;2023-04-12T12:50:15;92874.75;;;13.51;31.04
10079;BME280;5078;42.544;22.966;2023-04-12T12:52:42;92879.00;;;13.59;30.92
10079;BME280;5078;42.544;22.966;2023-04-12T12:55:09;92876.97;;;13.79;31.33
10079;BME280;5078;42.544;22.966;2023-04-12T12:57:36;92885.06;;;13.91;30.53
10079;BME280;5078;42.544;22.966;2023-04-12T13:00:05;92887.75;;;13.66;30.02
10079;BME280;5078;42.544;22.966;2023-04-12T13:02:34;92887.84;;;13.78;30.86
10079;BME280;5078;42.544;22.966;2023-04-12T13:05:01;92887.72;;;14.10;31.66
10079;BME280;5078;42.544;22.966;2023-04-12T13:07:28;92898.09;;;13.99;30.94
10079;BME280;5078;42.544;22.966;2023-04-12T13:09:55;92889.84;;;13.82;30.83
10079;BME280;5078;42.544;22.966;2023-04-12T13:12:21;92886.47;;;13.94;30.58
10079;BME280;5078;42.544;22.966;2023-04-12T13:14:48;92891.28;;;14.03;31.03